createdAt,value
2024-05-09T00:02:41.425Z,11.80
2024-05-09T00:07:43.663Z,11.80
2024-05-09T00:12:45.522Z,11.90
2024-05-09T00:17:47.665Z,12.80
2024-05-09T00:22:49.962Z,12.50
2024-05-09T00:27:52.891Z,11.70
2024-05-09T00:32:55.011Z,11.70
2024-05-09T00:37:57.161Z,11.70
2024-05-09T00:42:59.258Z,11.60
2024-05-09T00:48:07.488Z,11.40
2024-05-09T00:53:12.719Z,11.30
2024-05-09T00:58:18.273Z,11.30
2024-05-09T01:03:20.633Z,11.10
2024-05-09T01:08:24.366Z,11.00
2024-05-09T01:13:26.530Z,10.90
2024-05-09T01:18:28.824Z,10.80
2024-05-09T01:23:30.833Z,10.70
2024-05-09T01:28:33.247Z,10.70
2024-05-09T01:33:35.234Z,12.30
2024-05-09T01:38:37.231Z,12.10
2024-05-09T01:43:39.148Z,10.50
2024-05-09T01:48:41.745Z,10.50
2024-05-09T01:53:44.631Z,10.30
2024-05-09T01:58:46.570Z,10.30
2024-05-09T02:03:48.546Z,10.40
2024-05-09T02:08:51.761Z,10.40
2024-05-09T02:13:54.058Z,10.40
2024-05-09T02:18:55.947Z,10.40
2024-05-09T02:23:58.109Z,10.40
2024-05-09T02:29:01.799Z,10.50
2024-05-09T02:34:03.972Z,10.60
2024-05-09T02:44:08.512Z,10.40
2024-05-09T02:49:10.627Z,10.50
2024-05-09T02:54:12.735Z,10.50
2024-05-09T02:59:15.043Z,10.50
2024-05-09T03:04:16.908Z,10.30
2024-05-09T03:09:19.088Z,11.90
2024-05-09T03:14:20.996Z,10.30
2024-05-09T03:19:23.025Z,10.20
2024-05-09T03:24:25.556Z,10.20
2024-05-09T03:29:27.717Z,10.20
2024-05-09T03:34:29.846Z,10.20
2024-05-09T03:39:33.102Z,10.00
2024-05-09T03:44:35.316Z,9.90
2024-05-09T03:49:37.296Z,9.70
2024-05-09T03:54:46.726Z,9.90
2024-05-09T03:59:48.551Z,10.10
2024-05-09T04:04:51.741Z,10.00
2024-05-09T04:19:58.480Z,10.00
2024-05-09T04:35:06.881Z,10.00
2024-05-09T04:40:17.154Z,10.00
2024-05-09T04:45:25.510Z,9.90
2024-05-09T04:50:36.042Z,9.70
2024-05-09T04:55:40.951Z,9.70
2024-05-09T05:00:43.240Z,9.70
2024-05-09T05:10:49.745Z,9.60
2024-05-09T05:15:58.506Z,9.80
2024-05-09T05:21:01.713Z,10.00
2024-05-09T05:31:06.640Z,10.00
2024-05-09T05:36:09.627Z,10.20
2024-05-09T05:41:11.494Z,10.30
2024-05-09T05:46:13.446Z,10.20
2024-05-09T05:51:15.920Z,10.40
2024-05-09T05:56:17.986Z,10.60
2024-05-09T06:01:19.923Z,10.50
2024-05-09T06:06:21.872Z,10.80
2024-05-09T06:11:24.459Z,10.80
2024-05-09T06:16:26.283Z,10.90
2024-05-09T06:26:31.652Z,11.60
2024-05-09T06:31:33.578Z,11.90
2024-05-09T06:36:35.516Z,11.90
2024-05-09T06:41:38.760Z,12.20
2024-05-09T06:56:46.480Z,13.10
2024-05-09T07:06:51.956Z,13.60
2024-05-09T07:11:53.962Z,13.90
2024-05-09T07:16:57.173Z,14.20
2024-05-09T07:21:59.896Z,14.20
2024-05-09T07:32:04.361Z,14.70
2024-05-09T07:37:12.551Z,14.90
2024-05-09T07:42:14.461Z,14.80
2024-05-09T07:48:29.058Z,15.20
2024-05-09T07:53:34.218Z,15.20
2024-05-09T07:58:02.873Z,15.30
2024-05-09T08:03:07.247Z,15.60
2024-05-09T08:08:09.323Z,16.00
2024-05-09T08:13:12.344Z,16.00
2024-05-09T08:18:17.894Z,16.30
2024-05-09T08:23:26.715Z,16.40
2024-05-09T08:28:28.804Z,16.90
2024-05-09T08:33:33.593Z,16.80
2024-05-09T08:38:35.685Z,17.30
2024-05-09T08:43:41.507Z,17.50
2024-05-09T08:48:46.809Z,18.00
2024-05-09T08:53:48.846Z,18.00
2024-05-09T08:58:56.221Z,18.40
2024-05-09T09:04:05.306Z,18.70
2024-05-09T09:09:08.918Z,18.70
2024-05-09T09:14:10.745Z,18.80
2024-05-09T09:19:15.137Z,18.90
2024-05-09T09:24:17.277Z,19.50
2024-05-09T09:29:20.755Z,19.70
2024-05-09T09:34:27.875Z,19.70
2024-05-09T09:39:35.134Z,20.00
2024-05-09T09:44:42.045Z,20.60
2024-05-09T09:49:46.610Z,19.20
2024-05-09T09:54:49.971Z,19.80
2024-05-09T09:59:54.595Z,19.50
2024-05-09T10:04:56.857Z,20.10
2024-05-09T10:15:10.589Z,20.60
2024-05-09T10:20:21.321Z,20.90
2024-05-09T10:25:26.841Z,21.50
2024-05-09T10:30:34.253Z,21.70
2024-05-09T10:35:38.918Z,21.80
2024-05-09T10:40:42.617Z,22.40
2024-05-09T10:45:44.658Z,22.40
2024-05-09T10:50:47.053Z,22.50
2024-05-09T10:55:58.705Z,22.90
2024-05-09T11:01:06.222Z,23.30
2024-05-09T11:06:11.604Z,23.60
2024-05-09T11:11:13.822Z,22.80
2024-05-09T11:16:22.969Z,24.00
2024-05-09T11:21:25.208Z,24.00
2024-05-09T11:26:29.832Z,24.30
2024-05-09T11:31:33.192Z,23.90
2024-05-09T11:36:35.550Z,24.00
2024-05-09T11:41:37.970Z,22.80
2024-05-09T11:46:40.573Z,22.20
2024-05-09T11:51:43.303Z,23.30
2024-05-09T11:56:45.289Z,24.10
2024-05-09T12:01:48.555Z,24.50
2024-05-09T12:06:50.825Z,24.00
2024-05-09T12:11:52.679Z,24.40
2024-05-09T12:16:54.668Z,24.50
2024-05-09T12:21:56.763Z,24.70
2024-05-09T12:27:00.204Z,25.00
2024-05-09T12:32:02.141Z,24.00
2024-05-09T12:37:05.744Z,23.60
2024-05-09T12:42:08.275Z,22.60
2024-05-09T12:47:11.110Z,23.60
2024-05-09T12:52:13.078Z,23.60
2024-05-09T12:57:15.402Z,24.40
2024-05-09T13:02:17.803Z,24.10
2024-05-09T13:07:19.920Z,24.40
2024-05-09T13:12:24.364Z,24.40
2024-05-09T13:17:27.319Z,24.90
2024-05-09T13:22:31.006Z,25.40
2024-05-09T13:27:33.847Z,24.80
2024-05-09T13:32:35.758Z,24.70
2024-05-09T13:37:37.722Z,25.50
2024-05-09T13:42:39.718Z,24.90
2024-05-09T13:47:43.116Z,24.60
2024-05-09T13:52:46.552Z,25.50
2024-05-09T13:57:48.525Z,25.70
2024-05-09T14:02:50.480Z,24.90
2024-05-09T14:07:52.453Z,24.30
2024-05-09T14:12:54.400Z,25.10
2024-05-09T14:17:56.390Z,25.10
2024-05-09T14:22:58.577Z,25.50
2024-05-09T14:28:00.665Z,25.40
2024-05-09T14:33:27.366Z,25.30
2024-05-09T14:38:29.270Z,24.70
2024-05-09T14:43:34.801Z,24.90
2024-05-09T14:48:37.386Z,24.60
2024-05-09T14:53:39.252Z,25.20
2024-05-09T14:58:41.123Z,24.90
2024-05-09T15:03:43.064Z,24.60
2024-05-09T15:08:53.862Z,24.50
2024-05-09T15:13:55.656Z,24.20
2024-05-09T15:19:00.652Z,23.90
2024-05-09T15:24:03.283Z,24.00
2024-05-09T15:29:05.378Z,24.20
2024-05-09T15:34:08.739Z,24.10
2024-05-09T15:39:10.687Z,24.40
2024-05-09T15:44:12.923Z,23.80
2024-05-09T15:49:15.983Z,23.40
2024-05-09T15:54:17.938Z,23.10
2024-05-09T15:59:20.726Z,22.90
2024-05-09T16:04:22.703Z,23.00
2024-05-09T16:09:25.040Z,22.70
2024-05-09T16:14:28.212Z,22.40
2024-05-09T16:24:33.787Z,21.60
2024-05-09T16:29:36.401Z,21.60
2024-05-09T16:34:38.446Z,21.60
2024-05-09T16:39:42.880Z,21.40
2024-05-09T16:44:44.793Z,21.40
2024-05-09T16:49:46.646Z,21.10
2024-05-09T16:54:48.582Z,21.10
2024-05-09T16:59:50.499Z,20.90
2024-05-09T17:04:52.546Z,21.10
2024-05-09T17:09:54.497Z,20.60
2024-05-09T17:14:56.413Z,20.30
2024-05-09T17:19:58.306Z,20.10
2024-05-09T17:25:00.213Z,20.00
2024-05-09T17:30:03.483Z,19.90
2024-05-09T17:40:16.697Z,19.80
2024-05-09T17:45:20.610Z,19.50
2024-05-09T17:50:30.223Z,19.30
2024-05-09T17:55:36.676Z,19.30
2024-05-09T18:00:41.523Z,19.00
2024-05-09T18:05:45.345Z,18.90
2024-05-09T18:10:47.456Z,18.80
2024-05-09T18:15:50.736Z,18.60
2024-05-09T18:20:52.675Z,18.30
2024-05-09T18:25:56.443Z,18.30
2024-05-09T18:30:58.395Z,17.80
2024-05-09T18:36:00.918Z,17.50
2024-05-09T18:41:03.300Z,17.30
2024-05-09T18:46:05.426Z,17.00
2024-05-09T18:51:08.349Z,17.00
2024-05-09T18:56:10.577Z,16.60
2024-05-09T19:01:12.529Z,16.40
2024-05-09T19:06:14.818Z,18.20
2024-05-09T19:11:16.800Z,17.20
2024-05-09T19:16:18.796Z,16.70
2024-05-09T19:21:20.873Z,17.00
2024-05-09T19:26:23.709Z,15.60
2024-05-09T19:31:25.733Z,16.60
2024-05-09T19:36:28.330Z,15.40
2024-05-09T19:41:30.139Z,15.90
2024-05-09T19:51:35.454Z,15.20
2024-05-09T19:56:44.473Z,15.10
2024-05-09T20:01:46.414Z,14.80
2024-05-09T20:06:48.595Z,16.50
2024-05-09T20:11:50.519Z,16.40
2024-05-09T20:16:53.069Z,14.50
2024-05-09T20:21:54.917Z,16.40
2024-05-09T20:26:56.848Z,14.30
2024-05-09T20:31:58.755Z,14.20
2024-05-09T20:37:00.660Z,15.50
2024-05-09T20:42:03.417Z,15.60
2024-05-09T20:47:05.230Z,13.90
2024-05-09T20:52:07.196Z,16.20
2024-05-09T20:57:12.323Z,13.70
2024-05-09T21:02:15.700Z,13.50
2024-05-09T21:07:18.350Z,13.50
2024-05-09T21:12:20.168Z,13.40
2024-05-09T21:17:24.133Z,13.30
2024-05-09T21:22:27.907Z,13.30
2024-05-09T21:27:31.086Z,13.10
2024-05-09T21:32:34.057Z,13.00
2024-05-09T21:37:37.257Z,13.40
2024-05-09T21:42:39.131Z,15.10
2024-05-09T21:47:42.889Z,12.80
2024-05-09T21:52:44.779Z,12.60
2024-05-09T21:57:47.151Z,13.90
2024-05-09T22:02:52.138Z,12.50
2024-05-09T22:07:54.179Z,12.40
2024-05-09T22:12:56.887Z,12.80
2024-05-09T22:17:58.919Z,12.30
2024-05-09T22:28:03.854Z,12.10
2024-05-09T22:33:07.794Z,12.10
2024-05-09T22:38:10.149Z,11.90
2024-05-09T22:43:12.914Z,11.80
2024-05-09T22:48:16.521Z,11.80
2024-05-09T22:53:18.476Z,11.70
2024-05-09T22:58:20.920Z,11.70
2024-05-09T23:03:24.148Z,11.70
2024-05-09T23:08:27.110Z,12.00
2024-05-09T23:13:29.332Z,11.60
2024-05-09T23:18:31.283Z,13.20
2024-05-09T23:23:33.422Z,11.40
2024-05-09T23:28:35.682Z,11.40
2024-05-09T23:33:37.699Z,12.90
2024-05-09T23:38:41.197Z,13.50
2024-05-09T23:43:42.988Z,13.90
2024-05-09T23:48:44.936Z,12.90
2024-05-09T23:53:47.618Z,11.10
2024-05-09T23:58:49.634Z,12.80
